createdAt,value
2022-09-15T00:00:08.735Z,91.82
2022-09-15T00:02:35.387Z,92.19
2022-09-15T00:05:02.256Z,92.20
2022-09-15T00:07:28.807Z,92.47
2022-09-15T00:09:55.264Z,92.47
2022-09-15T00:12:21.888Z,92.16
2022-09-15T00:14:48.573Z,92.54
2022-09-15T00:17:15.169Z,92.74
2022-09-15T00:19:41.650Z,92.32
2022-09-15T00:22:08.161Z,92.10
2022-09-15T00:24:35.949Z,92.04
2022-09-15T00:27:02.517Z,92.44
2022-09-15T00:29:29.127Z,92.69
2022-09-15T00:31:55.570Z,92.91
2022-09-15T00:34:22.241Z,93.06
2022-09-15T00:36:48.760Z,92.88
2022-09-15T00:39:15.256Z,93.52
2022-09-15T00:41:41.879Z,93.23
2022-09-15T00:44:23.655Z,93.67
2022-09-15T00:47:15.272Z,93.32
2022-09-15T00:49:41.092Z,93.74
2022-09-15T00:52:13.915Z,94.07
2022-09-15T00:55:05.281Z,94.45
2022-09-15T00:57:39.240Z,94.87
2022-09-15T01:00:11.228Z,94.87
2022-09-15T01:02:39.110Z,94.97
2022-09-15T01:05:10.575Z,94.97
2022-09-15T01:07:56.566Z,94.70
2022-09-15T01:10:26.002Z,94.94
2022-09-15T01:12:57.108Z,95.54
2022-09-15T01:15:44.573Z,95.28
2022-09-15T01:18:22.481Z,95.41
2022-09-15T01:21:04.263Z,95.75
2022-09-15T01:23:54.091Z,95.73
2022-09-15T01:26:42.459Z,95.74
2022-09-15T01:29:41.370Z,95.88
2022-09-15T01:32:35.018Z,95.53
2022-09-15T01:35:33.473Z,95.85
2022-09-15T01:38:05.951Z,96.08
2022-09-15T01:40:39.103Z,95.94
2022-09-15T01:43:11.004Z,96.13
2022-09-15T01:45:41.162Z,96.27
2022-09-15T01:48:09.877Z,96.83
2022-09-15T01:50:43.570Z,96.73
2022-09-15T01:53:16.062Z,96.80
2022-09-15T01:55:54.669Z,97.02
2022-09-15T01:58:22.007Z,97.04
2022-09-15T02:00:56.029Z,96.80
2022-09-15T02:03:35.121Z,97.29
2022-09-15T02:06:08.940Z,97.12
2022-09-15T02:08:52.442Z,97.20
2022-09-15T02:11:26.567Z,97.26
2022-09-15T02:14:22.284Z,96.94
2022-09-15T02:16:52.398Z,97.72
2022-09-15T02:19:31.202Z,97.66
2022-09-15T02:22:07.684Z,97.46
2022-09-15T02:24:42.385Z,97.51
2022-09-15T02:27:24.096Z,98.01
2022-09-15T02:29:53.863Z,98.19
2022-09-15T02:32:23.665Z,98.11
2022-09-15T02:34:53.343Z,97.50
2022-09-15T02:37:21.877Z,97.36
2022-09-15T02:39:55.010Z,97.86
2022-09-15T02:42:30.136Z,97.64
2022-09-15T02:44:57.123Z,97.80
2022-09-15T02:47:25.115Z,97.77
2022-09-15T02:49:51.864Z,97.94
2022-09-15T02:52:18.303Z,97.87
2022-09-15T02:54:44.821Z,98.02
2022-09-15T02:57:11.912Z,97.92
2022-09-15T02:59:56.917Z,97.93
2022-09-15T03:02:24.919Z,98.37
2022-09-15T03:04:51.556Z,98.47
2022-09-15T03:07:18.717Z,98.45
2022-09-15T03:09:45.604Z,98.56
2022-09-15T03:12:12.240Z,98.47
2022-09-15T03:14:38.681Z,98.20
2022-09-15T03:17:05.152Z,98.18
2022-09-15T03:19:31.992Z,98.33
2022-09-15T03:21:58.511Z,98.50
2022-09-15T03:24:25.136Z,98.46
2022-09-15T03:26:51.728Z,98.52
2022-09-15T03:29:18.157Z,98.44
2022-09-15T03:31:44.669Z,98.69
2022-09-15T03:34:11.167Z,98.48
2022-09-15T03:36:38.279Z,98.52
2022-09-15T03:39:04.780Z,98.16
2022-09-15T03:41:31.234Z,98.16
2022-09-15T03:43:57.997Z,98.04
2022-09-15T03:46:24.480Z,97.56
2022-09-15T03:48:50.975Z,97.37
2022-09-15T03:51:17.448Z,97.30
2022-09-15T03:53:44.151Z,97.27
2022-09-15T03:56:11.980Z,97.00
2022-09-15T03:58:38.591Z,97.12
2022-09-15T04:01:05.392Z,97.29
2022-09-15T04:03:32.571Z,97.14
2022-09-15T04:05:59.108Z,96.75
2022-09-15T04:08:25.618Z,97.04
2022-09-15T04:10:53.025Z,97.74
2022-09-15T04:13:19.496Z,97.73
2022-09-15T04:15:45.924Z,98.02
2022-09-15T04:18:12.421Z,98.29
2022-09-15T04:20:39.909Z,98.02
2022-09-15T04:23:06.466Z,97.94
2022-09-15T04:25:32.971Z,98.09
2022-09-15T04:27:59.459Z,97.75
2022-09-15T04:30:25.979Z,97.82
2022-09-15T04:32:53.628Z,97.72
2022-09-15T04:35:21.986Z,97.47
2022-09-15T04:37:48.742Z,97.88
2022-09-15T04:40:15.565Z,97.82
2022-09-15T04:42:42.087Z,98.32
2022-09-15T04:45:09.075Z,98.31
2022-09-15T04:47:35.599Z,98.16
2022-09-15T04:50:02.110Z,98.29
2022-09-15T04:52:28.589Z,98.42
2022-09-15T04:54:55.080Z,98.48
2022-09-15T04:57:21.539Z,98.29
2022-09-15T04:59:47.976Z,98.84
2022-09-15T05:02:14.500Z,99.33
2022-09-15T05:04:41.152Z,98.86
2022-09-15T05:07:07.575Z,99.10
2022-09-15T05:09:34.316Z,98.84
2022-09-15T05:12:00.974Z,98.84
2022-09-15T05:14:27.491Z,99.04
2022-09-15T05:16:53.982Z,98.89
2022-09-15T05:19:21.076Z,99.01
2022-09-15T05:21:47.521Z,98.92
2022-09-15T05:24:14.032Z,99.00
2022-09-15T05:26:41.756Z,98.82
2022-09-15T05:29:08.311Z,98.85
2022-09-15T05:31:35.138Z,98.75
2022-09-15T05:34:04.490Z,98.84
2022-09-15T05:36:32.106Z,98.78
2022-09-15T05:38:58.773Z,99.02
2022-09-15T05:41:30.434Z,98.93
2022-09-15T05:43:58.299Z,98.97
2022-09-15T05:46:26.700Z,98.90
2022-09-15T05:48:55.671Z,99.07
2022-09-15T05:51:22.962Z,99.21
2022-09-15T05:53:49.537Z,99.34
2022-09-15T05:56:17.235Z,99.14
2022-09-15T05:58:47.907Z,99.06
2022-09-15T06:01:20.265Z,98.94
2022-09-15T06:03:47.628Z,98.70
2022-09-15T06:06:14.249Z,98.87
2022-09-15T06:08:48.264Z,99.25
2022-09-15T06:11:20.630Z,98.77
2022-09-15T06:13:47.512Z,98.64
2022-09-15T06:16:19.615Z,97.33
2022-09-15T06:18:48.115Z,97.49
2022-09-15T06:21:17.264Z,96.13
2022-09-15T06:23:48.595Z,95.59
2022-09-15T06:26:19.145Z,94.55
2022-09-15T06:28:57.564Z,94.70
2022-09-15T06:31:26.154Z,94.40
2022-09-15T06:33:55.407Z,93.85
2022-09-15T06:36:24.399Z,93.15
2022-09-15T06:38:51.792Z,92.72
2022-09-15T06:41:18.604Z,92.12
2022-09-15T06:43:46.693Z,91.87
2022-09-15T06:46:21.501Z,92.08
2022-09-15T06:48:48.807Z,91.47
2022-09-15T06:51:17.258Z,91.10
2022-09-15T06:53:44.199Z,91.53
2022-09-15T06:56:19.300Z,90.83
2022-09-15T06:58:51.909Z,90.78
2022-09-15T07:01:28.073Z,90.07
2022-09-15T07:03:57.639Z,89.62
2022-09-15T07:06:24.928Z,89.27
2022-09-15T07:08:51.517Z,89.87
2022-09-15T07:11:18.426Z,90.53
2022-09-15T07:13:45.452Z,89.40
2022-09-15T07:16:13.145Z,88.39
2022-09-15T07:18:43.259Z,87.92
2022-09-15T07:21:49.957Z,86.52
2022-09-15T07:24:26.464Z,86.21
2022-09-15T07:27:20.312Z,84.96
2022-09-15T07:33:51.366Z,83.82
2022-09-15T07:36:20.395Z,83.28
2022-09-15T07:38:49.607Z,82.76
2022-09-15T07:45:16.651Z,82.55
2022-09-15T07:47:50.962Z,82.30
2022-09-15T07:51:03.574Z,81.62
2022-09-15T07:57:19.801Z,80.19
2022-09-15T07:59:46.333Z,78.84
2022-09-15T08:02:17.323Z,79.44
2022-09-15T08:04:44.450Z,77.42
2022-09-15T08:07:11.560Z,77.20
2022-09-15T08:09:39.341Z,77.22
2022-09-15T08:12:07.456Z,76.66
2022-09-15T08:14:34.684Z,76.97
2022-09-15T08:17:03.012Z,75.58
2022-09-15T08:19:33.303Z,77.09
2022-09-15T08:21:59.929Z,76.73
2022-09-15T08:24:26.832Z,76.08
2022-09-15T08:26:53.447Z,76.85
2022-09-15T08:29:20.100Z,77.89
2022-09-15T08:31:46.935Z,74.89
2022-09-15T08:34:15.362Z,74.02
2022-09-15T08:36:42.367Z,72.80
2022-09-15T08:39:09.472Z,71.94
2022-09-15T08:41:40.197Z,70.46
2022-09-15T08:44:21.982Z,69.26
2022-09-15T08:46:56.581Z,69.54
2022-09-15T08:50:00.080Z,68.64
2022-09-15T08:52:33.382Z,68.17
2022-09-15T08:55:05.921Z,67.40
2022-09-15T08:57:32.569Z,68.49
2022-09-15T08:59:59.679Z,68.14
2022-09-15T09:03:05.512Z,67.86
2022-09-15T09:05:43.510Z,67.59
2022-09-15T09:08:33.022Z,68.84
2022-09-15T09:11:37.317Z,68.02
2022-09-15T09:14:13.366Z,68.21
2022-09-15T09:17:16.426Z,68.72
2022-09-15T09:20:32.060Z,69.06
2022-09-15T09:23:02.275Z,67.67
2022-09-15T09:25:28.814Z,68.07
2022-09-15T09:27:58.443Z,68.82
2022-09-15T09:30:29.666Z,69.40
2022-09-15T09:33:47.977Z,69.04
2022-09-15T09:38:58.645Z,69.67
2022-09-15T09:41:35.659Z,69.53
2022-09-15T09:44:11.593Z,69.69
2022-09-15T09:46:38.741Z,69.27
2022-09-15T09:52:59.828Z,65.67
2022-09-15T09:55:28.011Z,65.52
2022-09-15T09:58:10.755Z,64.44
2022-09-15T10:00:40.383Z,66.24
2022-09-15T10:03:30.579Z,66.08
2022-09-15T10:06:18.924Z,63.96
2022-09-15T10:08:57.903Z,61.99
2022-09-15T10:11:59.027Z,60.99
2022-09-15T10:14:35.292Z,61.29
2022-09-15T10:17:08.428Z,63.39
2022-09-15T10:19:44.938Z,57.68
2022-09-15T10:22:21.241Z,58.29
2022-09-15T10:24:47.695Z,57.44
2022-09-15T10:27:27.847Z,56.95
2022-09-15T10:29:55.395Z,57.20
2022-09-15T10:32:27.815Z,57.10
2022-09-15T10:35:20.903Z,57.84
2022-09-15T10:38:11.926Z,58.15
2022-09-15T10:40:53.527Z,58.62
2022-09-15T10:43:26.047Z,57.94
2022-09-15T10:46:00.516Z,56.44
2022-09-15T10:48:48.321Z,55.96
2022-09-15T10:51:34.050Z,55.37
2022-09-15T10:54:21.467Z,55.18
2022-09-15T10:56:52.236Z,56.89
2022-09-15T10:59:25.820Z,57.34
2022-09-15T11:02:12.642Z,57.67
2022-09-15T11:04:59.118Z,57.94
2022-09-15T11:07:44.897Z,56.74
2022-09-15T11:10:18.503Z,56.16
2022-09-15T11:13:06.156Z,55.67
2022-09-15T11:16:14.014Z,55.40
2022-09-15T11:18:50.267Z,56.59
2022-09-15T11:21:24.822Z,57.24
2022-09-15T11:23:55.967Z,55.29
2022-09-15T11:26:33.362Z,54.44
2022-09-15T11:29:07.365Z,56.26
2022-09-15T11:31:40.342Z,53.84
2022-09-15T11:34:11.659Z,54.70
2022-09-15T11:36:46.481Z,55.10
2022-09-15T11:39:19.473Z,53.31
2022-09-15T11:41:56.353Z,53.34
2022-09-15T11:44:35.321Z,54.06
2022-09-15T11:47:04.842Z,51.53
2022-09-15T11:49:55.995Z,50.24
2022-09-15T11:53:00.269Z,50.74
2022-09-15T11:55:42.107Z,50.86
2022-09-15T11:58:28.710Z,52.76
2022-09-15T12:00:59.439Z,53.96
2022-09-15T12:03:37.892Z,52.67
2022-09-15T12:06:20.655Z,51.84
2022-09-15T12:08:52.919Z,49.81
2022-09-15T12:11:26.467Z,49.79
2022-09-15T12:13:54.692Z,48.51
2022-09-15T12:16:22.112Z,50.06
2022-09-15T12:18:54.847Z,48.56
2022-09-15T12:21:50.869Z,45.67
2022-09-15T12:24:19.853Z,46.99
2022-09-15T12:26:47.601Z,46.60
2022-09-15T12:29:26.324Z,47.80
2022-09-15T12:32:19.674Z,47.84
2022-09-15T12:35:25.315Z,48.90
2022-09-15T12:37:59.995Z,48.51
2022-09-15T12:40:40.341Z,49.59
2022-09-15T12:43:13.424Z,50.78
2022-09-15T12:45:43.480Z,49.34
2022-09-15T12:48:22.490Z,48.81
2022-09-15T12:50:55.894Z,48.17
2022-09-15T12:53:38.117Z,51.76
2022-09-15T12:56:08.531Z,50.04
2022-09-15T12:58:47.317Z,50.46
2022-09-15T13:01:23.086Z,49.42
2022-09-15T13:03:49.648Z,49.06
2022-09-15T13:06:21.242Z,49.76
2022-09-15T13:08:54.744Z,52.37
2022-09-15T13:11:21.192Z,51.57
2022-09-15T13:13:59.828Z,50.21
2022-09-15T13:16:44.540Z,49.03
2022-09-15T13:19:46.709Z,50.55
2022-09-15T13:22:36.826Z,48.61
2022-09-15T13:25:10.840Z,48.83
2022-09-15T13:27:49.748Z,47.71
2022-09-15T13:30:25.499Z,49.09
2022-09-15T13:35:02.348Z,49.06
2022-09-15T13:40:05.803Z,49.79
2022-09-15T13:42:41.570Z,47.54
2022-09-15T13:45:17.120Z,47.69
2022-09-15T13:48:36.775Z,47.80
2022-09-15T13:51:15.530Z,47.78
2022-09-15T13:53:58.478Z,48.22
2022-09-15T13:56:32.819Z,48.11
2022-09-15T13:59:08.575Z,48.94
2022-09-15T14:01:39.388Z,49.31
2022-09-15T14:04:19.287Z,48.87
2022-09-15T14:06:48.793Z,49.23
2022-09-15T14:09:21.631Z,48.50
2022-09-15T14:11:51.825Z,48.85
2022-09-15T14:14:27.266Z,49.20
2022-09-15T14:16:55.967Z,50.35
2022-09-15T14:19:33.493Z,51.23
2022-09-15T14:22:02.635Z,51.51
2022-09-15T14:24:31.687Z,50.19
2022-09-15T14:27:08.511Z,50.64
2022-09-15T14:29:40.221Z,51.55
2022-09-15T14:32:07.088Z,50.42
2022-09-15T14:34:37.052Z,52.04
2022-09-15T14:37:07.255Z,51.74
2022-09-15T14:39:37.350Z,50.69
2022-09-15T14:42:21.855Z,51.51
2022-09-15T14:47:37.393Z,51.14
2022-09-15T14:50:21.467Z,49.43
2022-09-15T14:52:58.195Z,49.23
2022-09-15T14:55:28.258Z,49.53
2022-09-15T14:58:04.716Z,49.89
2022-09-15T15:00:40.502Z,50.86
2022-09-15T15:03:34.944Z,51.69
2022-09-15T15:06:28.937Z,49.19
2022-09-15T15:09:21.337Z,46.59
2022-09-15T15:11:51.522Z,44.30
2022-09-15T15:14:18.675Z,45.96
2022-09-15T15:17:24.672Z,48.98
2022-09-15T15:19:58.391Z,45.15
2022-09-15T15:22:25.320Z,41.95
2022-09-15T15:24:53.296Z,39.13
2022-09-15T15:27:40.519Z,37.09
2022-09-15T15:30:34.441Z,35.86
2022-09-15T15:33:02.174Z,34.81
2022-09-15T15:35:30.817Z,34.46
2022-09-15T15:38:25.444Z,36.36
2022-09-15T15:41:01.040Z,37.96
2022-09-15T15:43:28.879Z,37.99
2022-09-15T15:46:01.307Z,41.81
2022-09-15T15:48:32.843Z,43.38
2022-09-15T15:51:09.322Z,46.22
2022-09-15T15:53:35.877Z,46.44
2022-09-15T15:56:02.540Z,47.79
2022-09-15T15:58:29.008Z,48.76
2022-09-15T16:00:56.850Z,48.83
2022-09-15T16:03:24.788Z,50.09
2022-09-15T16:06:00.143Z,50.84
2022-09-15T16:08:26.567Z,50.75
2022-09-15T16:10:56.780Z,51.12
2022-09-15T16:13:24.730Z,51.63
2022-09-15T16:15:56.875Z,52.04
2022-09-15T16:18:24.129Z,52.14
2022-09-15T16:20:50.859Z,52.86
2022-09-15T16:23:19.762Z,53.76
2022-09-15T16:25:54.793Z,53.39
2022-09-15T16:28:21.582Z,54.02
2022-09-15T16:30:48.213Z,54.90
2022-09-15T16:33:16.216Z,55.01
2022-09-15T16:36:03.699Z,57.04
2022-09-15T16:38:30.276Z,66.11
2022-09-15T16:40:56.852Z,69.85
2022-09-15T16:43:23.376Z,70.47
2022-09-15T16:45:51.172Z,73.09
2022-09-15T16:48:17.955Z,72.75
2022-09-15T16:51:01.712Z,72.78
2022-09-15T16:53:32.676Z,76.04
2022-09-15T16:55:59.205Z,75.64
2022-09-15T16:58:25.719Z,76.72
2022-09-15T17:00:52.883Z,77.86
2022-09-15T17:03:22.767Z,77.04
2022-09-15T17:05:53.995Z,79.04
2022-09-15T17:08:24.094Z,79.84
2022-09-15T17:10:50.876Z,78.34
2022-09-15T17:13:22.256Z,80.42
2022-09-15T17:15:50.967Z,78.95
2022-09-15T17:18:17.499Z,79.59
2022-09-15T17:20:44.874Z,78.93
2022-09-15T17:23:23.512Z,81.07
2022-09-15T17:25:52.931Z,80.20
2022-09-15T17:28:22.377Z,79.57
2022-09-15T17:30:50.926Z,79.70
2022-09-15T17:33:19.198Z,78.82
2022-09-15T17:35:46.652Z,80.39
2022-09-15T17:38:13.776Z,81.02
2022-09-15T17:40:40.270Z,80.94
2022-09-15T17:43:14.143Z,78.79
2022-09-15T17:45:40.838Z,78.57
2022-09-15T17:48:07.771Z,80.02
2022-09-15T17:50:35.073Z,80.75
2022-09-15T17:53:01.612Z,80.12
2022-09-15T17:55:31.001Z,78.89
2022-09-15T17:57:59.955Z,81.06
2022-09-15T18:00:30.367Z,79.21
2022-09-15T18:02:59.694Z,78.72
2022-09-15T18:05:34.792Z,78.36
2022-09-15T18:08:05.064Z,78.43
2022-09-15T18:10:33.365Z,78.50
2022-09-15T18:13:00.258Z,78.41
2022-09-15T18:15:29.261Z,77.91
2022-09-15T18:17:59.548Z,77.80
2022-09-15T18:20:28.372Z,79.53
2022-09-15T18:22:55.663Z,79.57
2022-09-15T18:25:29.795Z,78.98
2022-09-15T18:27:58.087Z,80.97
2022-09-15T18:30:26.956Z,80.67
2022-09-15T18:32:53.692Z,81.25
2022-09-15T18:35:21.464Z,82.34
2022-09-15T18:37:49.804Z,80.92
2022-09-15T18:40:18.467Z,82.37
2022-09-15T18:42:45.692Z,82.66
2022-09-15T18:45:15.429Z,82.65
2022-09-15T18:47:42.763Z,84.46
2022-09-15T18:50:13.013Z,83.24
2022-09-15T18:52:41.052Z,83.34
2022-09-15T18:55:11.357Z,83.32
2022-09-15T18:57:39.520Z,83.91
2022-09-15T19:00:13.690Z,84.29
2022-09-15T19:02:40.620Z,84.34
2022-09-15T19:05:11.004Z,83.96
2022-09-15T19:07:38.943Z,83.95
2022-09-15T19:10:06.805Z,84.32
2022-09-15T19:12:35.100Z,84.50
2022-09-15T19:15:01.664Z,85.44
2022-09-15T19:17:28.144Z,84.84
2022-09-15T19:19:55.255Z,85.87
2022-09-15T19:22:21.786Z,85.49
2022-09-15T19:24:48.292Z,85.30
2022-09-15T19:27:14.953Z,86.41
2022-09-15T19:29:41.662Z,86.53
2022-09-15T19:32:11.890Z,85.77
2022-09-15T19:34:41.864Z,85.22
2022-09-15T19:37:12.269Z,86.10
2022-09-15T19:39:42.915Z,86.03
2022-09-15T19:42:11.147Z,85.79
2022-09-15T19:44:38.046Z,86.24
2022-09-15T19:47:04.664Z,85.52
2022-09-15T19:49:31.145Z,85.56
2022-09-15T19:51:57.703Z,84.85
2022-09-15T19:54:26.859Z,85.19
2022-09-15T19:56:53.354Z,84.94
2022-09-15T19:59:20.365Z,84.07
2022-09-15T20:01:47.499Z,84.39
2022-09-15T20:06:59.005Z,84.06
2022-09-15T20:09:26.225Z,84.32
2022-09-15T20:11:52.770Z,85.09
2022-09-15T20:14:19.338Z,85.03
2022-09-15T20:16:45.840Z,85.38
2022-09-15T20:19:12.401Z,84.48
2022-09-15T20:21:55.563Z,84.27
2022-09-15T20:24:23.645Z,83.54
2022-09-15T20:26:50.266Z,83.78
2022-09-15T20:29:16.829Z,84.84
2022-09-15T20:31:43.567Z,85.00
2022-09-15T20:34:10.070Z,84.81
2022-09-15T20:36:38.852Z,84.71
2022-09-15T20:39:10.454Z,85.93
2022-09-15T20:41:37.180Z,86.66
2022-09-15T20:44:05.232Z,85.53
2022-09-15T20:46:31.728Z,86.11
2022-09-15T20:48:58.280Z,85.52
2022-09-15T20:51:27.928Z,85.64
2022-09-15T20:53:56.119Z,85.77
2022-09-15T20:56:25.586Z,86.08
2022-09-15T20:58:53.580Z,86.76
2022-09-15T21:01:25.561Z,85.43
2022-09-15T21:03:53.376Z,84.99
2022-09-15T21:06:22.214Z,84.36
2022-09-15T21:08:49.742Z,84.11
2022-09-15T21:11:17.755Z,84.31
2022-09-15T21:13:44.646Z,83.92
2022-09-15T21:16:16.950Z,84.74
2022-09-15T21:18:44.596Z,84.29
2022-09-15T21:21:17.255Z,84.37
2022-09-15T21:23:49.359Z,85.09
2022-09-15T21:26:27.582Z,85.32
2022-09-15T21:28:56.074Z,85.76
2022-09-15T21:31:27.904Z,85.08
2022-09-15T21:33:55.107Z,85.75
2022-09-15T21:36:24.616Z,85.22
2022-09-15T21:38:52.848Z,85.94
2022-09-15T21:41:22.007Z,86.05
2022-09-15T21:43:49.538Z,85.67
2022-09-15T21:46:18.444Z,85.74
2022-09-15T21:48:47.687Z,84.79
2022-09-15T21:51:24.545Z,85.14
2022-09-15T21:53:54.123Z,85.19
2022-09-15T21:56:21.626Z,84.15
2022-09-15T21:58:48.829Z,83.28
2022-09-15T22:01:19.787Z,83.99
2022-09-15T22:03:51.485Z,85.12
2022-09-15T22:06:19.907Z,84.69
2022-09-15T22:08:46.845Z,83.11
2022-09-15T22:11:13.538Z,82.72
2022-09-15T22:13:42.853Z,83.52
2022-09-15T22:16:15.928Z,83.81
2022-09-15T22:18:43.508Z,83.34
2022-09-15T22:21:15.745Z,82.44
2022-09-15T22:23:44.272Z,82.77
2022-09-15T22:26:16.657Z,82.34
2022-09-15T22:28:43.347Z,83.17
2022-09-15T22:31:12.244Z,83.41
2022-09-15T22:33:41.044Z,81.88
2022-09-15T22:36:12.221Z,81.37
2022-09-15T22:38:38.882Z,81.52
2022-09-15T22:41:09.158Z,81.18
2022-09-15T22:43:36.870Z,81.46
2022-09-15T22:46:04.358Z,82.74
2022-09-15T22:48:31.374Z,82.06
2022-09-15T22:50:58.448Z,82.30
2022-09-15T22:53:25.446Z,82.84
2022-09-15T22:55:53.163Z,81.89
2022-09-15T22:58:19.953Z,82.41
2022-09-15T23:00:46.585Z,82.93
2022-09-15T23:03:13.060Z,83.16
2022-09-15T23:05:39.657Z,83.50
2022-09-15T23:08:06.132Z,83.62
2022-09-15T23:10:32.745Z,83.08
2022-09-15T23:12:59.849Z,83.02
2022-09-15T23:15:26.508Z,81.87
2022-09-15T23:17:52.958Z,81.86
2022-09-15T23:20:19.410Z,81.19
2022-09-15T23:22:45.921Z,82.62
2022-09-15T23:25:12.978Z,81.68
2022-09-15T23:27:39.600Z,81.42
2022-09-15T23:30:06.480Z,82.19
2022-09-15T23:32:32.929Z,81.29
2022-09-15T23:34:59.417Z,80.70
2022-09-15T23:37:26.035Z,82.10
2022-09-15T23:39:52.563Z,80.87
2022-09-15T23:42:19.232Z,81.62
2022-09-15T23:44:46.167Z,80.84
2022-09-15T23:47:12.673Z,81.24
2022-09-15T23:49:39.268Z,81.79
2022-09-15T23:52:05.792Z,81.77
2022-09-15T23:54:32.360Z,82.08
2022-09-15T23:56:58.889Z,83.37
2022-09-15T23:59:25.456Z,83.07
